Terminal Aerodrome Forecast
Issued by NWS

Home | Current Version | Previous Version | Text Only | Print | Product List | Glossary On
Versions: 1 2 3 4 5 6 7 8 9 10 11 12 13 14 15 16 17 18
000
FTUS43 KABR 230500
TAFATY
TAF
KATY 230522Z 2306/2406 17008KT P6SM BKN250
     FM231500 17012G20KT P6SM -RA OVC030
     FM232000 16013G19KT P6SM OVC050
     FM240300 15010KT P6SM OVC015=

USA.gov is the U.S. government's official web portal to all federal, state and local government web resources and services.